sensor_id;sensor_type;location;lat;lon;timestamp;pressure;altitude;pressure_sealevel;temperature;humidity
77877;BME280;67251;50.844;7.978;2023-03-04T00:02:08;99588.16;;;-2.66;87.58
77877;BME280;67251;50.844;7.978;2023-03-04T00:04:34;99584.47;;;-2.64;87.51
77877;BME280;67251;50.844;7.978;2023-03-04T00:06:59;99582.50;;;-2.60;87.27
77877;BME280;67251;50.844;7.978;2023-03-04T00:09:25;99582.44;;;-2.59;87.50
77877;BME280;67251;50.844;7.978;2023-03-04T00:11:50;99585.78;;;-2.57;87.45
77877;BME280;67251;50.844;7.978;2023-03-04T00:14:16;99589.13;;;-2.54;87.13
77877;BME280;67251;50.844;7.978;2023-03-04T00:16:41;99587.25;;;-2.52;87.00
77877;BME280;67251;50.844;7.978;2023-03-04T00:19:07;99583.69;;;-2.51;87.17
77877;BME280;67251;50.844;7.978;2023-03-04T00:21:32;99586.97;;;-2.48;87.29
77877;BME280;67251;50.844;7.978;2023-03-04T00:23:57;99589.47;;;-2.46;87.17
77877;BME280;67251;50.844;7.978;2023-03-04T00:26:23;99588.44;;;-2.44;86.90
77877;BME280;67251;50.844;7.978;2023-03-04T00:28:48;99586.56;;;-2.42;86.93
77877;BME280;67251;50.844;7.978;2023-03-04T00:31:13;99584.56;;;-2.38;87.22
77877;BME280;67251;50.844;7.978;2023-03-04T00:33:39;99585.31;;;-2.36;86.88
77877;BME280;67251;50.844;7.978;2023-03-04T00:36:05;99583.50;;;-2.36;87.38
77877;BME280;67251;50.844;7.978;2023-03-04T00:38:30;99585.94;;;-2.33;87.24
77877;BME280;67251;50.844;7.978;2023-03-04T00:40:56;99578.84;;;-2.30;86.99
77877;BME280;67251;50.844;7.978;2023-03-04T00:43:21;99579.56;;;-2.28;87.08
77877;BME280;67251;50.844;7.978;2023-03-04T00:45:47;99578.41;;;-2.24;87.14
77877;BME280;67251;50.844;7.978;2023-03-04T00:48:12;99580.94;;;-2.23;86.66
77877;BME280;67251;50.844;7.978;2023-03-04T00:50:38;99578.19;;;-2.21;86.88
77877;BME280;67251;50.844;7.978;2023-03-04T00:53:04;99574.53;;;-2.19;86.78
77877;BME280;67251;50.844;7.978;2023-03-04T00:55:30;99566.69;;;-2.19;86.72
77877;BME280;67251;50.844;7.978;2023-03-04T00:57:55;99570.97;;;-2.18;86.63
77877;BME280;67251;50.844;7.978;2023-03-04T01:00:21;99574.44;;;-2.17;86.67
77877;BME280;67251;50.844;7.978;2023-03-04T01:02:46;99564.78;;;-2.17;86.59
77877;BME280;67251;50.844;7.978;2023-03-04T01:05:12;99571.72;;;-2.16;86.76
77877;BME280;67251;50.844;7.978;2023-03-04T01:07:38;99565.53;;;-2.15;86.61
77877;BME280;67251;50.844;7.978;2023-03-04T01:10:05;99568.03;;;-2.13;86.38
77877;BME280;67251;50.844;7.978;2023-03-04T01:12:30;99566.25;;;-2.13;86.78
77877;BME280;67251;50.844;7.978;2023-03-04T01:14:56;99562.72;;;-2.12;86.62
77877;BME280;67251;50.844;7.978;2023-03-04T01:17:21;99560.09;;;-2.12;86.75
77877;BME280;67251;50.844;7.978;2023-03-04T01:19:47;99559.16;;;-2.11;86.56
77877;BME280;67251;50.844;7.978;2023-03-04T01:22:12;99563.44;;;-2.10;86.66
77877;BME280;67251;50.844;7.978;2023-03-04T01:24:39;99552.84;;;-2.08;86.60
77877;BME280;67251;50.844;7.978;2023-03-04T01:27:05;99549.25;;;-2.07;86.38
77877;BME280;67251;50.844;7.978;2023-03-04T01:29:30;99549.25;;;-2.07;86.14
77877;BME280;67251;50.844;7.978;2023-03-04T01:31:55;99547.50;;;-2.07;86.27
77877;BME280;67251;50.844;7.978;2023-03-04T01:34:21;99550.13;;;-2.07;86.56
77877;BME280;67251;50.844;7.978;2023-03-04T01:36:46;99541.31;;;-2.06;86.29
77877;BME280;67251;50.844;7.978;2023-03-04T01:39:11;99531.66;;;-2.05;86.04
77877;BME280;67251;50.844;7.978;2023-03-04T01:41:37;99541.19;;;-2.04;86.38
77877;BME280;67251;50.844;7.978;2023-03-04T01:44:02;99528.94;;;-2.03;86.28
77877;BME280;67251;50.844;7.978;2023-03-04T01:46:29;99519.19;;;-2.01;86.49
77877;BME280;67251;50.844;7.978;2023-03-04T01:48:55;99511.31;;;-2.01;86.59
77877;BME280;67251;50.844;7.978;2023-03-04T01:53:56;99513.94;;;-2.01;86.34
77877;BME280;67251;50.844;7.978;2023-03-04T01:56:24;99516.47;;;-2.00;86.29
77877;BME280;67251;50.844;7.978;2023-03-04T01:59:10;99502.50;;;-2.00;86.20
77877;BME280;67251;50.844;7.978;2023-03-04T02:01:37;99506.81;;;-1.99;86.40
77877;BME280;67251;50.844;7.978;2023-03-04T02:04:04;99509.31;;;-1.98;86.18
77877;BME280;67251;50.844;7.978;2023-03-04T02:06:30;99506.59;;;-1.96;86.70
77877;BME280;67251;50.844;7.978;2023-03-04T02:08:56;99500.41;;;-1.95;86.45
77877;BME280;67251;50.844;7.978;2023-03-04T02:11:22;99504.81;;;-1.96;86.39
77877;BME280;67251;50.844;7.978;2023-03-04T02:13:48;99501.25;;;-1.95;86.11
77877;BME280;67251;50.844;7.978;2023-03-04T02:16:13;99502.19;;;-1.96;85.99
77877;BME280;67251;50.844;7.978;2023-03-04T02:18:39;99502.06;;;-1.94;86.45
77877;BME280;67251;50.844;7.978;2023-03-04T02:21:21;99488.00;;;-1.93;86.27
77877;BME280;67251;50.844;7.978;2023-03-04T02:26:17;99486.97;;;-1.91;85.90
77877;BME280;67251;50.844;7.978;2023-03-04T02:28:43;99491.28;;;-1.90;85.72
77877;BME280;67251;50.844;7.978;2023-03-04T02:31:23;99485.94;;;-1.88;85.90
77877;BME280;67251;50.844;7.978;2023-03-04T02:33:50;99488.56;;;-1.88;85.92
77877;BME280;67251;50.844;7.978;2023-03-04T02:36:16;99486.78;;;-1.88;85.80
77877;BME280;67251;50.844;7.978;2023-03-04T02:38:41;99491.06;;;-1.87;86.43
77877;BME280;67251;50.844;7.978;2023-03-04T02:41:11;99487.59;;;-1.87;85.82
77877;BME280;67251;50.844;7.978;2023-03-04T02:43:38;99488.31;;;-1.85;85.74
77877;BME280;67251;50.844;7.978;2023-03-04T02:46:03;99490.84;;;-1.84;86.12
77877;BME280;67251;50.844;7.978;2023-03-04T02:48:30;99487.28;;;-1.83;86.29
77877;BME280;67251;50.844;7.978;2023-03-04T02:50:55;99488.84;;;-1.80;86.35
77877;BME280;67251;50.844;7.978;2023-03-04T02:53:21;99483.59;;;-1.80;86.22
77877;BME280;67251;50.844;7.978;2023-03-04T02:55:47;99488.00;;;-1.81;86.41
77877;BME280;67251;50.844;7.978;2023-03-04T02:58:13;99490.50;;;-1.79;85.81
77877;BME280;67251;50.844;7.978;2023-03-04T03:00:39;99491.38;;;-1.78;86.03
77877;BME280;67251;50.844;7.978;2023-03-04T03:03:05;99483.50;;;-1.78;85.91
77877;BME280;67251;50.844;7.978;2023-03-04T03:05:32;99487.69;;;-1.76;85.79
77877;BME280;67251;50.844;7.978;2023-03-04T03:07:58;99492.09;;;-1.76;85.67
77877;BME280;67251;50.844;7.978;2023-03-04T03:10:24;99484.22;;;-1.76;85.70
77877;BME280;67251;50.844;7.978;2023-03-04T03:12:50;99485.06;;;-1.76;86.10
77877;BME280;67251;50.844;7.978;2023-03-04T03:15:16;99481.50;;;-1.75;86.08
77877;BME280;67251;50.844;7.978;2023-03-04T03:17:41;99481.41;;;-1.73;85.98
77877;BME280;67251;50.844;7.978;2023-03-04T03:20:08;99466.59;;;-1.74;85.87
77877;BME280;67251;50.844;7.978;2023-03-04T03:22:34;99463.97;;;-1.74;85.66
77877;BME280;67251;50.844;7.978;2023-03-04T03:24:59;99469.13;;;-1.73;85.60
77877;BME280;67251;50.844;7.978;2023-03-04T03:27:25;99467.34;;;-1.72;86.03
77877;BME280;67251;50.844;7.978;2023-03-04T03:29:50;99470.78;;;-1.72;85.83
77877;BME280;67251;50.844;7.978;2023-03-04T03:32:15;99466.38;;;-1.71;85.57
77877;BME280;67251;50.844;7.978;2023-03-04T03:34:41;99466.38;;;-1.71;85.67
77877;BME280;67251;50.844;7.978;2023-03-04T03:37:06;99467.22;;;-1.71;85.31
77877;BME280;67251;50.844;7.978;2023-03-04T03:39:32;99468.03;;;-1.70;85.30
77877;BME280;67251;50.844;7.978;2023-03-04T03:41:57;99465.34;;;-1.69;85.53
77877;BME280;67251;50.844;7.978;2023-03-04T03:44:22;99467.97;;;-1.69;85.25
77877;BME280;67251;50.844;7.978;2023-03-04T03:46:48;99467.00;;;-1.68;85.42
77877;BME280;67251;50.844;7.978;2023-03-04T03:49:13;99466.06;;;-1.67;85.57
77877;BME280;67251;50.844;7.978;2023-03-04T03:51:39;99465.09;;;-1.66;85.58
77877;BME280;67251;50.844;7.978;2023-03-04T03:54:04;99465.94;;;-1.65;85.69
77877;BME280;67251;50.844;7.978;2023-03-04T03:56:29;99461.53;;;-1.65;85.37
77877;BME280;67251;50.844;7.978;2023-03-04T03:58:55;99457.13;;;-1.64;85.44
77877;BME280;67251;50.844;7.978;2023-03-04T04:01:20;99455.13;;;-1.61;85.75
77877;BME280;67251;50.844;7.978;2023-03-04T04:03:46;99461.09;;;-1.59;85.34
77877;BME280;67251;50.844;7.978;2023-03-04T04:06:11;99450.63;;;-1.59;85.09
77877;BME280;67251;50.844;7.978;2023-03-04T04:08:37;99453.25;;;-1.59;85.04
77877;BME280;67251;50.844;7.978;2023-03-04T04:11:02;99448.00;;;-1.59;85.43
77877;BME280;67251;50.844;7.978;2023-03-04T04:13:28;99447.88;;;-1.57;85.14
77877;BME280;67251;50.844;7.978;2023-03-04T04:15:53;99452.06;;;-1.55;85.36
77877;BME280;67251;50.844;7.978;2023-03-04T04:18:19;99452.91;;;-1.54;85.00
77877;BME280;67251;50.844;7.978;2023-03-04T04:20:45;99447.53;;;-1.52;85.05
77877;BME280;67251;50.844;7.978;2023-03-04T04:23:10;99449.22;;;-1.51;84.86
77877;BME280;67251;50.844;7.978;2023-03-04T04:25:36;99444.78;;;-1.51;84.89
77877;BME280;67251;50.844;7.978;2023-03-04T04:28:01;99439.53;;;-1.51;84.84
77877;BME280;67251;50.844;7.978;2023-03-04T04:30:27;99446.50;;;-1.50;85.07
77877;BME280;67251;50.844;7.978;2023-03-04T04:32:52;99446.38;;;-1.48;85.13
77877;BME280;67251;50.844;7.978;2023-03-04T04:35:18;99443.63;;;-1.47;85.58
77877;BME280;67251;50.844;7.978;2023-03-04T04:37:43;99444.47;;;-1.46;85.20
77877;BME280;67251;50.844;7.978;2023-03-04T04:40:09;99433.88;;;-1.45;84.74
77877;BME280;67251;50.844;7.978;2023-03-04T04:42:34;99442.59;;;-1.44;84.92
77877;BME280;67251;50.844;7.978;2023-03-04T04:45:00;99441.75;;;-1.45;85.09
77877;BME280;67251;50.844;7.978;2023-03-04T04:47:25;99444.25;;;-1.43;84.64
77877;BME280;67251;50.844;7.978;2023-03-04T04:49:51;99438.19;;;-1.44;84.73
77877;BME280;67251;50.844;7.978;2023-03-04T04:52:16;99447.59;;;-1.41;84.38
77877;BME280;67251;50.844;7.978;2023-03-04T04:54:41;99443.22;;;-1.41;84.50
77877;BME280;67251;50.844;7.978;2023-03-04T04:57:07;99432.72;;;-1.41;84.45
77877;BME280;67251;50.844;7.978;2023-03-04T04:59:32;99444.88;;;-1.40;84.90
77877;BME280;67251;50.844;7.978;2023-03-04T05:01:58;99439.50;;;-1.38;84.59
77877;BME280;67251;50.844;7.978;2023-03-04T05:04:23;99430.69;;;-1.37;84.40
77877;BME280;67251;50.844;7.978;2023-03-04T05:06:48;99436.69;;;-1.35;84.42
77877;BME280;67251;50.844;7.978;2023-03-04T05:09:14;99436.56;;;-1.34;84.75
77877;BME280;67251;50.844;7.978;2023-03-04T05:11:39;99438.34;;;-1.34;84.64
77877;BME280;67251;50.844;7.978;2023-03-04T05:14:05;99440.00;;;-1.33;84.88
77877;BME280;67251;50.844;7.978;2023-03-04T05:16:30;99442.56;;;-1.32;84.91
77877;BME280;67251;50.844;7.978;2023-03-04T05:18:55;99441.59;;;-1.31;84.56
77877;BME280;67251;50.844;7.978;2023-03-04T05:21:22;99434.44;;;-1.29;84.71
77877;BME280;67251;50.844;7.978;2023-03-04T05:23:47;99443.97;;;-1.27;84.37
77877;BME280;67251;50.844;7.978;2023-03-04T05:26:16;99442.22;;;-1.27;84.22
77877;BME280;67251;50.844;7.978;2023-03-04T05:28:41;99436.97;;;-1.27;84.23
77877;BME280;67251;50.844;7.978;2023-03-04T05:31:07;99439.47;;;-1.25;84.93
77877;BME280;67251;50.844;7.978;2023-03-04T05:33:32;99435.75;;;-1.23;84.89
77877;BME280;67251;50.844;7.978;2023-03-04T05:36:00;99443.56;;;-1.21;84.60
77877;BME280;67251;50.844;7.978;2023-03-04T05:38:26;99446.06;;;-1.20;84.66
77877;BME280;67251;50.844;7.978;2023-03-04T05:40:56;99446.06;;;-1.20;84.31
77877;BME280;67251;50.844;7.978;2023-03-04T05:43:22;99446.78;;;-1.18;84.50
77877;BME280;67251;50.844;7.978;2023-03-04T05:45:48;99449.19;;;-1.15;84.48
77877;BME280;67251;50.844;7.978;2023-03-04T05:48:14;99448.97;;;-1.12;84.65
77877;BME280;67251;50.844;7.978;2023-03-04T05:50:39;99447.47;;;-1.03;83.58
77877;BME280;67251;50.844;7.978;2023-03-04T05:53:04;99456.09;;;-0.90;83.53
77877;BME280;67251;50.844;7.978;2023-03-04T05:55:30;99451.09;;;-0.82;82.82
77877;BME280;67251;50.844;7.978;2023-03-04T05:57:56;99442.19;;;-0.68;82.13
77877;BME280;67251;50.844;7.978;2023-03-04T06:00:22;99445.81;;;-0.58;81.88
77877;BME280;67251;50.844;7.978;2023-03-04T06:02:47;99455.47;;;-0.58;81.49
77877;BME280;67251;50.844;7.978;2023-03-04T06:05:14;99443.19;;;-0.58;81.63
77877;BME280;67251;50.844;7.978;2023-03-04T06:07:40;99453.47;;;-0.55;81.45
77877;BME280;67251;50.844;7.978;2023-03-04T06:10:08;99448.97;;;-0.41;81.08
77877;BME280;67251;50.844;7.978;2023-03-04T06:12:34;99455.31;;;-0.33;80.45
77877;BME280;67251;50.844;7.978;2023-03-04T06:14:59;99444.66;;;-0.20;80.03
77877;BME280;67251;50.844;7.978;2023-03-04T06:17:25;99447.69;;;-0.13;79.77
77877;BME280;67251;50.844;7.978;2023-03-04T06:19:50;99447.44;;;-0.10;79.58
77877;BME280;67251;50.844;7.978;2023-03-04T06:22:15;99443.88;;;-0.09;79.40
77877;BME280;67251;50.844;7.978;2023-03-04T06:24:41;99451.75;;;-0.09;79.55
77877;BME280;67251;50.844;7.978;2023-03-04T06:27:06;99452.69;;;-0.10;79.54
77877;BME280;67251;50.844;7.978;2023-03-04T06:29:31;99448.53;;;-0.13;79.59
77877;BME280;67251;50.844;7.978;2023-03-04T06:31:57;99447.69;;;-0.13;79.73
77877;BME280;67251;50.844;7.978;2023-03-04T06:34:22;99452.94;;;-0.13;80.33
77877;BME280;67251;50.844;7.978;2023-03-04T06:36:48;99447.78;;;-0.15;80.10
77877;BME280;67251;50.844;7.978;2023-03-04T06:39:13;99448.03;;;-0.18;80.29
77877;BME280;67251;50.844;7.978;2023-03-04T06:41:39;99459.63;;;-0.20;80.41
77877;BME280;67251;50.844;7.978;2023-03-04T06:44:05;99458.91;;;-0.22;80.14
77877;BME280;67251;50.844;7.978;2023-03-04T06:46:32;99470.28;;;-0.22;80.04
77877;BME280;67251;50.844;7.978;2023-03-04T06:48:58;99465.72;;;-0.20;80.46
77877;BME280;67251;50.844;7.978;2023-03-04T06:51:23;99470.00;;;-0.19;80.35
77877;BME280;67251;50.844;7.978;2023-03-04T06:53:49;99473.16;;;-0.14;80.18
77877;BME280;67251;50.844;7.978;2023-03-04T06:56:14;99464.31;;;-0.13;80.41
77877;BME280;67251;50.844;7.978;2023-03-04T06:58:41;99482.97;;;-0.05;79.57
77877;BME280;67251;50.844;7.978;2023-03-04T07:01:27;99472.66;;;0.04;79.36
77877;BME280;67251;50.844;7.978;2023-03-04T07:03:53;99478.53;;;0.07;79.34
77877;BME280;67251;50.844;7.978;2023-03-04T07:06:22;99481.03;;;0.09;79.36
77877;BME280;67251;50.844;7.978;2023-03-04T07:08:48;99480.81;;;0.12;79.23
77877;BME280;67251;50.844;7.978;2023-03-04T07:11:13;99474.59;;;0.13;79.45
77877;BME280;67251;50.844;7.978;2023-03-04T07:13:39;99480.22;;;0.19;79.00
77877;BME280;67251;50.844;7.978;2023-03-04T07:16:09;99488.25;;;0.29;78.33
77877;BME280;67251;50.844;7.978;2023-03-04T07:18:35;99482.72;;;0.43;77.17
77877;BME280;67251;50.844;7.978;2023-03-04T07:21:01;99489.41;;;0.59;76.80
77877;BME280;67251;50.844;7.978;2023-03-04T07:23:26;99483.28;;;0.69;75.85
77877;BME280;67251;50.844;7.978;2023-03-04T07:25:52;99488.63;;;0.79;75.88
77877;BME280;67251;50.844;7.978;2023-03-04T07:28:17;99488.16;;;0.85;76.01
77877;BME280;67251;50.844;7.978;2023-03-04T07:30:43;99497.38;;;0.91;75.77
77877;BME280;67251;50.844;7.978;2023-03-04T07:33:09;99498.91;;;0.93;76.02
77877;BME280;67251;50.844;7.978;2023-03-04T07:35:34;99495.78;;;0.99;74.83
77877;BME280;67251;50.844;7.978;2023-03-04T07:38:00;99496.94;;;1.07;74.77
77877;BME280;67251;50.844;7.978;2023-03-04T07:40:25;99498.38;;;1.11;74.60
77877;BME280;67251;50.844;7.978;2023-03-04T07:42:52;99497.19;;;1.15;74.32
77877;BME280;67251;50.844;7.978;2023-03-04T07:45:18;99499.56;;;1.18;74.20
77877;BME280;67251;50.844;7.978;2023-03-04T07:47:44;99499.06;;;1.24;73.96
77877;BME280;67251;50.844;7.978;2023-03-04T07:50:10;99501.31;;;1.28;74.01
77877;BME280;67251;50.844;7.978;2023-03-04T07:52:41;99503.69;;;1.32;73.57
77877;BME280;67251;50.844;7.978;2023-03-04T07:55:07;99500.56;;;1.38;73.50
77877;BME280;67251;50.844;7.978;2023-03-04T07:57:33;99505.47;;;1.42;73.71
77877;BME280;67251;50.844;7.978;2023-03-04T07:59:58;99504.25;;;1.46;73.82
77877;BME280;67251;50.844;7.978;2023-03-04T08:02:23;99510.06;;;1.50;72.89
77877;BME280;67251;50.844;7.978;2023-03-04T08:04:49;99506.13;;;1.56;72.90
77877;BME280;67251;50.844;7.978;2023-03-04T08:07:14;99503.94;;;1.61;72.78
77877;BME280;67251;50.844;7.978;2023-03-04T08:09:40;99505.06;;;1.68;72.64
77877;BME280;67251;50.844;7.978;2023-03-04T08:12:05;99502.19;;;1.71;72.51
77877;BME280;67251;50.844;7.978;2023-03-04T08:14:31;99501.91;;;1.74;73.36
77877;BME280;67251;50.844;7.978;2023-03-04T08:16:57;99511.63;;;1.73;73.44
77877;BME280;67251;50.844;7.978;2023-03-04T08:19:23;99508.63;;;1.78;72.72
77877;BME280;67251;50.844;7.978;2023-03-04T08:21:48;99501.81;;;1.75;72.22
77877;BME280;67251;50.844;7.978;2023-03-04T08:24:14;99513.06;;;1.77;72.38
77877;BME280;67251;50.844;7.978;2023-03-04T08:26:43;99511.44;;;1.86;72.09
77877;BME280;67251;50.844;7.978;2023-03-04T08:29:12;99498.69;;;1.91;72.43
77877;BME280;67251;50.844;7.978;2023-03-04T08:31:37;99501.53;;;1.99;72.19
77877;BME280;67251;50.844;7.978;2023-03-04T08:34:04;99497.34;;;1.97;71.94
77877;BME280;67251;50.844;7.978;2023-03-04T08:36:30;99497.66;;;2.03;71.57
77877;BME280;67251;50.844;7.978;2023-03-04T08:38:55;99502.72;;;2.16;71.72
77877;BME280;67251;50.844;7.978;2023-03-04T08:41:21;99493.13;;;2.15;70.72
77877;BME280;67251;50.844;7.978;2023-03-04T08:43:47;99493.56;;;2.20;70.63
77877;BME280;67251;50.844;7.978;2023-03-04T08:46:12;99496.66;;;2.25;71.02
77877;BME280;67251;50.844;7.978;2023-03-04T08:48:37;99501.03;;;2.36;70.51
77877;BME280;67251;50.844;7.978;2023-03-04T08:51:12;99497.25;;;2.39;69.48
77877;BME280;67251;50.844;7.978;2023-03-04T08:53:38;99500.91;;;2.47;69.90
77877;BME280;67251;50.844;7.978;2023-03-04T08:56:04;99502.91;;;2.55;69.90
77877;BME280;67251;50.844;7.978;2023-03-04T08:58:30;99499.25;;;2.46;70.36
77877;BME280;67251;50.844;7.978;2023-03-04T09:00:58;99495.63;;;2.47;69.88
77877;BME280;67251;50.844;7.978;2023-03-04T09:03:24;99505.06;;;2.40;69.81
77877;BME280;67251;50.844;7.978;2023-03-04T09:05:49;99502.69;;;2.37;69.91
77877;BME280;67251;50.844;7.978;2023-03-04T09:08:15;99505.19;;;2.39;70.36
77877;BME280;67251;50.844;7.978;2023-03-04T09:10:41;99504.53;;;2.46;69.94
77877;BME280;67251;50.844;7.978;2023-03-04T09:13:07;99506.78;;;2.51;69.71
77877;BME280;67251;50.844;7.978;2023-03-04T09:15:36;99500.94;;;2.57;69.46
77877;BME280;67251;50.844;7.978;2023-03-04T09:18:03;99504.44;;;2.67;68.84
77877;BME280;67251;50.844;7.978;2023-03-04T09:20:30;99509.34;;;2.72;68.83
77877;BME280;67251;50.844;7.978;2023-03-04T09:22:56;99506.16;;;2.68;69.48
77877;BME280;67251;50.844;7.978;2023-03-04T09:25:22;99510.97;;;2.63;69.48
77877;BME280;67251;50.844;7.978;2023-03-04T09:27:47;99514.00;;;2.59;69.29
77877;BME280;67251;50.844;7.978;2023-03-04T09:30:13;99510.00;;;2.54;68.95
77877;BME280;67251;50.844;7.978;2023-03-04T09:32:38;99510.84;;;2.65;69.20
77877;BME280;67251;50.844;7.978;2023-03-04T09:35:06;99520.19;;;2.69;68.70
77877;BME280;67251;50.844;7.978;2023-03-04T09:37:31;99509.25;;;2.93;67.58
77877;BME280;67251;50.844;7.978;2023-03-04T09:39:57;99510.13;;;3.32;66.24
77877;BME280;67251;50.844;7.978;2023-03-04T09:42:43;99501.72;;;3.95;64.53
77877;BME280;67251;50.844;7.978;2023-03-04T09:45:15;99495.50;;;4.33;63.53
77877;BME280;67251;50.844;7.978;2023-03-04T09:47:42;99497.41;;;4.68;62.63
77877;BME280;67251;50.844;7.978;2023-03-04T09:50:10;99499.44;;;4.56;62.79
77877;BME280;67251;50.844;7.978;2023-03-04T09:55:34;99497.25;;;4.42;63.08
77877;BME280;67251;50.844;7.978;2023-03-04T10:00:50;99477.94;;;5.41;60.15
77877;BME280;67251;50.844;7.978;2023-03-04T10:03:18;99470.47;;;6.32;57.89
77877;BME280;67251;50.844;7.978;2023-03-04T10:05:52;99464.38;;;6.90;56.21
77877;BME280;67251;50.844;7.978;2023-03-04T10:11:08;99456.78;;;7.85;53.92
77877;BME280;67251;50.844;7.978;2023-03-04T10:16:11;99454.78;;;7.13;54.49
77877;BME280;67251;50.844;7.978;2023-03-04T10:18:43;99458.06;;;6.83;55.33
77877;BME280;67251;50.844;7.978;2023-03-04T10:21:33;99458.84;;;6.75;55.71
77877;BME280;67251;50.844;7.978;2023-03-04T10:24:07;99451.66;;;6.68;55.70
77877;BME280;67251;50.844;7.978;2023-03-04T10:26:35;99454.00;;;6.28;56.48
77877;BME280;67251;50.844;7.978;2023-03-04T10:29:00;99458.44;;;6.20;56.05
77877;BME280;67251;50.844;7.978;2023-03-04T10:31:32;99453.72;;;6.39;55.55
77877;BME280;67251;50.844;7.978;2023-03-04T10:34:05;99454.56;;;6.82;54.14
77877;BME280;67251;50.844;7.978;2023-03-04T10:38:59;99438.16;;;7.11;54.53
77877;BME280;67251;50.844;7.978;2023-03-04T10:41:27;99438.66;;;7.07;55.23
77877;BME280;67251;50.844;7.978;2023-03-04T10:46:27;99438.19;;;7.44;53.36
77877;BME280;67251;50.844;7.978;2023-03-04T10:48:53;99442.50;;;7.37;54.29
77877;BME280;67251;50.844;7.978;2023-03-04T10:53:47;99436.81;;;7.24;55.10
77877;BME280;67251;50.844;7.978;2023-03-04T11:01:50;99432.16;;;6.43;56.80
77877;BME280;67251;50.844;7.978;2023-03-04T11:04:19;99432.41;;;6.23;57.55
77877;BME280;67251;50.844;7.978;2023-03-04T11:06:47;99428.34;;;6.45;57.22
77877;BME280;67251;50.844;7.978;2023-03-04T11:09:24;99430.41;;;6.68;56.83
77877;BME280;67251;50.844;7.978;2023-03-04T11:11:51;99432.41;;;6.65;57.51
77877;BME280;67251;50.844;7.978;2023-03-04T11:14:25;99425.56;;;6.63;57.64
77877;BME280;67251;50.844;7.978;2023-03-04T11:16:58;99429.09;;;6.80;56.89
77877;BME280;67251;50.844;7.978;2023-03-04T11:19:36;99422.78;;;6.81;56.92
77877;BME280;67251;50.844;7.978;2023-03-04T11:22:03;99432.72;;;6.62;57.31
77877;BME280;67251;50.844;7.978;2023-03-04T11:24:32;99428.47;;;6.35;57.05
77877;BME280;67251;50.844;7.978;2023-03-04T11:29:39;99425.59;;;6.29;58.40
77877;BME280;67251;50.844;7.978;2023-03-04T11:32:21;99415.66;;;5.97;59.23
77877;BME280;67251;50.844;7.978;2023-03-04T11:34:51;99420.72;;;5.64;60.92
77877;BME280;67251;50.844;7.978;2023-03-04T11:40:00;99425.94;;;5.48;61.04
77877;BME280;67251;50.844;7.978;2023-03-04T11:42:39;99429.56;;;5.47;61.48
77877;BME280;67251;50.844;7.978;2023-03-04T11:45:15;99431.75;;;5.51;61.24
77877;BME280;67251;50.844;7.978;2023-03-04T11:53:13;99411.06;;;6.41;59.26
77877;BME280;67251;50.844;7.978;2023-03-04T11:55:55;99410.44;;;6.55;58.49
77877;BME280;67251;50.844;7.978;2023-03-04T11:58:47;99417.84;;;6.35;59.28
77877;BME280;67251;50.844;7.978;2023-03-04T12:01:37;99418.53;;;6.11;60.12
77877;BME280;67251;50.844;7.978;2023-03-04T12:04:24;99414.38;;;5.83;60.26
77877;BME280;67251;50.844;7.978;2023-03-04T12:07:19;99415.03;;;5.59;61.92
77877;BME280;67251;50.844;7.978;2023-03-04T12:26:59;99390.78;;;5.10;64.40
77877;BME280;67251;50.844;7.978;2023-03-04T12:30:04;99400.41;;;5.11;64.45
77877;BME280;67251;50.844;7.978;2023-03-04T12:32:46;99392.38;;;5.03;65.01
77877;BME280;67251;50.844;7.978;2023-03-04T12:35:35;99393.66;;;5.17;65.05
77877;BME280;67251;50.844;7.978;2023-03-04T12:43:26;99384.56;;;5.37;63.97
77877;BME280;67251;50.844;7.978;2023-03-04T12:48:41;99369.41;;;5.55;64.13
77877;BME280;67251;50.844;7.978;2023-03-04T12:51:16;99369.34;;;5.47;63.64
77877;BME280;67251;50.844;7.978;2023-03-04T12:56:44;99363.44;;;5.09;64.34
77877;BME280;67251;50.844;7.978;2023-03-04T12:59:16;99363.00;;;4.96;64.94
77877;BME280;67251;50.844;7.978;2023-03-04T13:02:07;99361.25;;;4.87;66.23
77877;BME280;67251;50.844;7.978;2023-03-04T13:07:36;99362.31;;;4.76;67.00
77877;BME280;67251;50.844;7.978;2023-03-04T13:10:15;99355.72;;;4.63;67.65
77877;BME280;67251;50.844;7.978;2023-03-04T13:12:55;99362.97;;;4.60;68.14
77877;BME280;67251;50.844;7.978;2023-03-04T13:17:50;99353.59;;;4.84;67.57
77877;BME280;67251;50.844;7.978;2023-03-04T13:23:29;99345.09;;;4.98;67.50
77877;BME280;67251;50.844;7.978;2023-03-04T13:28:26;99345.41;;;4.77;68.60
77877;BME280;67251;50.844;7.978;2023-03-04T13:44:01;99314.09;;;5.77;66.23
77877;BME280;67251;50.844;7.978;2023-03-04T13:51:32;99312.25;;;6.03;64.63
77877;BME280;67251;50.844;7.978;2023-03-04T13:56:35;99302.94;;;5.99;65.60
77877;BME280;67251;50.844;7.978;2023-03-04T14:06:41;99312.16;;;4.83;70.24
77877;BME280;67251;50.844;7.978;2023-03-04T14:09:15;99313.97;;;4.65;71.39
77877;BME280;67251;50.844;7.978;2023-03-04T14:11:41;99308.91;;;4.53;71.72
77877;BME280;67251;50.844;7.978;2023-03-04T14:14:13;99313.84;;;4.48;71.96
77877;BME280;67251;50.844;7.978;2023-03-04T14:16:45;99305.28;;;4.54;71.82
77877;BME280;67251;50.844;7.978;2023-03-04T14:19:25;99298.00;;;4.74;71.09
77877;BME280;67251;50.844;7.978;2023-03-04T14:21:50;99292.97;;;4.89;70.86
77877;BME280;67251;50.844;7.978;2023-03-04T14:24:18;99281.16;;;5.01;70.70
77877;BME280;67251;50.844;7.978;2023-03-04T14:26:44;99281.47;;;5.24;69.88
77877;BME280;67251;50.844;7.978;2023-03-04T14:29:28;99282.47;;;5.23;69.78
77877;BME280;67251;50.844;7.978;2023-03-04T14:31:55;99280.13;;;5.20;69.80
77877;BME280;67251;50.844;7.978;2023-03-04T14:34:28;99270.19;;;5.22;69.83
77877;BME280;67251;50.844;7.978;2023-03-04T14:36:56;99268.31;;;5.15;69.99
77877;BME280;67251;50.844;7.978;2023-03-04T14:39:24;99264.94;;;5.04;70.84
77877;BME280;67251;50.844;7.978;2023-03-04T14:41:51;99265.16;;;4.93;71.06
77877;BME280;67251;50.844;7.978;2023-03-04T14:47:07;99271.66;;;4.55;72.47
77877;BME280;67251;50.844;7.978;2023-03-04T14:49:35;99267.72;;;4.41;73.23
77877;BME280;67251;50.844;7.978;2023-03-04T14:52:01;99257.06;;;4.33;73.85
77877;BME280;67251;50.844;7.978;2023-03-04T14:54:33;99260.00;;;4.30;74.40
77877;BME280;67251;50.844;7.978;2023-03-04T14:57:15;99263.66;;;4.29;74.73
77877;BME280;67251;50.844;7.978;2023-03-04T14:59:46;99254.41;;;4.33;74.49